sensor_id;sensor_type;location;lat;lon;timestamp;P1;durP1;ratioP1;P2;durP2;ratioP2
25932;SDS011;13731;51.166;4.474;2023-11-21T00:01:24;297.55;;;276.33;;
25932;SDS011;13731;51.166;4.474;2023-11-21T00:03:50;298.52;;;277.30;;
25932;SDS011;13731;51.166;4.474;2023-11-21T00:06:16;308.02;;;285.75;;
25932;SDS011;13731;51.166;4.474;2023-11-21T00:08:42;312.23;;;290.35;;
25932;SDS011;13731;51.166;4.474;2023-11-21T00:11:08;324.67;;;300.65;;
25932;SDS011;13731;51.166;4.474;2023-11-21T00:13:33;339.33;;;315.10;;
25932;SDS011;13731;51.166;4.474;2023-11-21T00:16:00;334.17;;;309.73;;
25932;SDS011;13731;51.166;4.474;2023-11-21T00:18:26;345.75;;;320.30;;
25932;SDS011;13731;51.166;4.474;2023-11-21T00:20:52;338.08;;;313.63;;
25932;SDS011;13731;51.166;4.474;2023-11-21T00:23:18;353.50;;;330.13;;
25932;SDS011;13731;51.166;4.474;2023-11-21T00:25:43;348.38;;;324.55;;
25932;SDS011;13731;51.166;4.474;2023-11-21T00:28:09;355.67;;;331.73;;
25932;SDS011;13731;51.166;4.474;2023-11-21T00:30:36;363.85;;;338.25;;
25932;SDS011;13731;51.166;4.474;2023-11-21T00:33:02;344.65;;;320.13;;
25932;SDS011;13731;51.166;4.474;2023-11-21T00:35:29;340.77;;;318.48;;
25932;SDS011;13731;51.166;4.474;2023-11-21T00:37:55;348.27;;;324.13;;
25932;SDS011;13731;51.166;4.474;2023-11-21T00:40:23;350.63;;;326.10;;
25932;SDS011;13731;51.166;4.474;2023-11-21T00:42:49;338.55;;;314.42;;
25932;SDS011;13731;51.166;4.474;2023-11-21T00:45:15;320.85;;;298.83;;
25932;SDS011;13731;51.166;4.474;2023-11-21T00:47:41;339.38;;;315.20;;
25932;SDS011;13731;51.166;4.474;2023-11-21T00:50:07;343.88;;;319.40;;
25932;SDS011;13731;51.166;4.474;2023-11-21T00:52:34;330.40;;;306.35;;
25932;SDS011;13731;51.166;4.474;2023-11-21T00:55:01;335.00;;;311.15;;
25932;SDS011;13731;51.166;4.474;2023-11-21T00:57:28;337.13;;;313.08;;
25932;SDS011;13731;51.166;4.474;2023-11-21T00:59:54;335.75;;;311.65;;
25932;SDS011;13731;51.166;4.474;2023-11-21T01:02:21;326.15;;;302.55;;
25932;SDS011;13731;51.166;4.474;2023-11-21T01:04:46;348.55;;;323.67;;
25932;SDS011;13731;51.166;4.474;2023-11-21T01:07:14;336.02;;;311.70;;
25932;SDS011;13731;51.166;4.474;2023-11-21T01:09:39;321.33;;;297.48;;
25932;SDS011;13731;51.166;4.474;2023-11-21T01:12:05;334.50;;;310.63;;
25932;SDS011;13731;51.166;4.474;2023-11-21T01:14:32;357.55;;;330.50;;
25932;SDS011;13731;51.166;4.474;2023-11-21T01:16:59;316.02;;;292.20;;
25932;SDS011;13731;51.166;4.474;2023-11-21T01:19:25;319.10;;;295.70;;
25932;SDS011;13731;51.166;4.474;2023-11-21T01:21:51;328.48;;;304.60;;
25932;SDS011;13731;51.166;4.474;2023-11-21T01:24:18;318.85;;;295.75;;
25932;SDS011;13731;51.166;4.474;2023-11-21T01:26:44;327.35;;;303.42;;
25932;SDS011;13731;51.166;4.474;2023-11-21T01:29:12;338.05;;;312.83;;
25932;SDS011;13731;51.166;4.474;2023-11-21T01:31:38;343.27;;;317.08;;
25932;SDS011;13731;51.166;4.474;2023-11-21T01:34:05;325.77;;;301.55;;
25932;SDS011;13731;51.166;4.474;2023-11-21T01:36:31;341.02;;;315.73;;
25932;SDS011;13731;51.166;4.474;2023-11-21T01:38:58;320.48;;;295.58;;
25932;SDS011;13731;51.166;4.474;2023-11-21T01:41:25;322.38;;;298.50;;
25932;SDS011;13731;51.166;4.474;2023-11-21T01:43:52;320.27;;;295.95;;
25932;SDS011;13731;51.166;4.474;2023-11-21T01:46:19;324.05;;;299.02;;
25932;SDS011;13731;51.166;4.474;2023-11-21T01:48:48;317.35;;;293.85;;
25932;SDS011;13731;51.166;4.474;2023-11-21T01:51:14;316.55;;;292.95;;
25932;SDS011;13731;51.166;4.474;2023-11-21T01:53:41;306.90;;;283.63;;
25932;SDS011;13731;51.166;4.474;2023-11-21T01:56:08;311.85;;;287.77;;
25932;SDS011;13731;51.166;4.474;2023-11-21T01:58:35;312.52;;;288.60;;
25932;SDS011;13731;51.166;4.474;2023-11-21T02:01:01;307.35;;;283.67;;
25932;SDS011;13731;51.166;4.474;2023-11-21T02:03:27;323.52;;;299.20;;
25932;SDS011;13731;51.166;4.474;2023-11-21T02:05:53;321.20;;;297.77;;
25932;SDS011;13731;51.166;4.474;2023-11-21T02:08:20;317.70;;;294.60;;
25932;SDS011;13731;51.166;4.474;2023-11-21T02:10:46;319.95;;;295.95;;
25932;SDS011;13731;51.166;4.474;2023-11-21T02:13:13;306.95;;;283.20;;
25932;SDS011;13731;51.166;4.474;2023-11-21T02:15:39;298.55;;;275.95;;
25932;SDS011;13731;51.166;4.474;2023-11-21T02:18:05;290.48;;;268.02;;
25932;SDS011;13731;51.166;4.474;2023-11-21T02:20:31;290.67;;;268.58;;
25932;SDS011;13731;51.166;4.474;2023-11-21T02:23:00;299.25;;;276.05;;
25932;SDS011;13731;51.166;4.474;2023-11-21T02:25:27;304.00;;;281.48;;
25932;SDS011;13731;51.166;4.474;2023-11-21T02:27:55;303.70;;;280.88;;
25932;SDS011;13731;51.166;4.474;2023-11-21T02:30:21;310.67;;;287.92;;
25932;SDS011;13731;51.166;4.474;2023-11-21T02:32:51;292.15;;;270.25;;
25932;SDS011;13731;51.166;4.474;2023-11-21T02:35:20;302.35;;;279.75;;
25932;SDS011;13731;51.166;4.474;2023-11-21T02:37:47;288.40;;;266.55;;
25932;SDS011;13731;51.166;4.474;2023-11-21T02:40:13;296.17;;;273.58;;
25932;SDS011;13731;51.166;4.474;2023-11-21T02:42:43;287.45;;;265.50;;
25932;SDS011;13731;51.166;4.474;2023-11-21T02:45:10;315.17;;;291.65;;
25932;SDS011;13731;51.166;4.474;2023-11-21T02:47:39;311.30;;;288.38;;
25932;SDS011;13731;51.166;4.474;2023-11-21T02:50:05;320.10;;;295.77;;
25932;SDS011;13731;51.166;4.474;2023-11-21T02:52:33;308.90;;;286.17;;
25932;SDS011;13731;51.166;4.474;2023-11-21T02:55:01;301.25;;;278.85;;
25932;SDS011;13731;51.166;4.474;2023-11-21T02:57:30;280.10;;;258.75;;
25932;SDS011;13731;51.166;4.474;2023-11-21T02:59:55;281.95;;;261.23;;
25932;SDS011;13731;51.166;4.474;2023-11-21T03:02:21;276.92;;;255.73;;
25932;SDS011;13731;51.166;4.474;2023-11-21T03:04:48;278.17;;;257.52;;
25932;SDS011;13731;51.166;4.474;2023-11-21T03:07:15;297.02;;;274.88;;
25932;SDS011;13731;51.166;4.474;2023-11-21T03:09:41;284.95;;;263.23;;
25932;SDS011;13731;51.166;4.474;2023-11-21T03:12:07;288.65;;;267.00;;
25932;SDS011;13731;51.166;4.474;2023-11-21T03:14:34;304.77;;;282.27;;
25932;SDS011;13731;51.166;4.474;2023-11-21T03:17:00;299.98;;;278.38;;
25932;SDS011;13731;51.166;4.474;2023-11-21T03:19:27;303.02;;;279.67;;
25932;SDS011;13731;51.166;4.474;2023-11-21T03:21:53;286.00;;;264.92;;
25932;SDS011;13731;51.166;4.474;2023-11-21T03:24:19;303.55;;;282.05;;
25932;SDS011;13731;51.166;4.474;2023-11-21T03:26:45;303.17;;;281.13;;
25932;SDS011;13731;51.166;4.474;2023-11-21T03:29:12;291.45;;;270.35;;
25932;SDS011;13731;51.166;4.474;2023-11-21T03:31:39;283.98;;;263.73;;
25932;SDS011;13731;51.166;4.474;2023-11-21T03:34:05;304.10;;;281.80;;
25932;SDS011;13731;51.166;4.474;2023-11-21T03:36:32;293.33;;;272.98;;
25932;SDS011;13731;51.166;4.474;2023-11-21T03:38:58;328.52;;;305.17;;
25932;SDS011;13731;51.166;4.474;2023-11-21T03:41:24;308.55;;;286.90;;
25932;SDS011;13731;51.166;4.474;2023-11-21T03:43:50;305.33;;;283.85;;
25932;SDS011;13731;51.166;4.474;2023-11-21T03:46:16;316.98;;;295.55;;
25932;SDS011;13731;51.166;4.474;2023-11-21T03:48:42;313.23;;;291.85;;
25932;SDS011;13731;51.166;4.474;2023-11-21T03:51:08;308.98;;;287.88;;
25932;SDS011;13731;51.166;4.474;2023-11-21T03:53:34;288.35;;;268.55;;
25932;SDS011;13731;51.166;4.474;2023-11-21T03:56:01;303.60;;;282.67;;
25932;SDS011;13731;51.166;4.474;2023-11-21T03:58:28;303.63;;;282.17;;
25932;SDS011;13731;51.166;4.474;2023-11-21T04:00:55;316.40;;;294.55;;
25932;SDS011;13731;51.166;4.474;2023-11-21T04:03:21;304.08;;;282.23;;
25932;SDS011;13731;51.166;4.474;2023-11-21T04:05:47;287.23;;;266.48;;
25932;SDS011;13731;51.166;4.474;2023-11-21T04:08:13;291.92;;;271.45;;
25932;SDS011;13731;51.166;4.474;2023-11-21T04:10:39;283.85;;;264.15;;
25932;SDS011;13731;51.166;4.474;2023-11-21T04:13:07;285.95;;;266.48;;
25932;SDS011;13731;51.166;4.474;2023-11-21T04:15:33;277.33;;;257.77;;
25932;SDS011;13731;51.166;4.474;2023-11-21T04:17:59;277.70;;;257.17;;
25932;SDS011;13731;51.166;4.474;2023-11-21T04:20:25;285.95;;;266.30;;
25932;SDS011;13731;51.166;4.474;2023-11-21T04:22:52;281.42;;;262.20;;
25932;SDS011;13731;51.166;4.474;2023-11-21T04:25:18;280.75;;;261.05;;
25932;SDS011;13731;51.166;4.474;2023-11-21T04:27:44;289.30;;;269.15;;
25932;SDS011;13731;51.166;4.474;2023-11-21T04:30:11;271.92;;;252.68;;
25932;SDS011;13731;51.166;4.474;2023-11-21T04:32:38;269.92;;;251.32;;
25932;SDS011;13731;51.166;4.474;2023-11-21T04:35:11;269.05;;;250.10;;
25932;SDS011;13731;51.166;4.474;2023-11-21T04:37:37;261.67;;;242.32;;
25932;SDS011;13731;51.166;4.474;2023-11-21T04:40:03;269.65;;;250.40;;
25932;SDS011;13731;51.166;4.474;2023-11-21T04:42:35;256.47;;;238.30;;
25932;SDS011;13731;51.166;4.474;2023-11-21T04:45:01;274.23;;;254.63;;
25932;SDS011;13731;51.166;4.474;2023-11-21T04:47:32;280.05;;;260.63;;
25932;SDS011;13731;51.166;4.474;2023-11-21T04:49:58;265.33;;;247.35;;
25932;SDS011;13731;51.166;4.474;2023-11-21T04:52:24;269.50;;;249.93;;
25932;SDS011;13731;51.166;4.474;2023-11-21T04:54:50;270.08;;;251.35;;
25932;SDS011;13731;51.166;4.474;2023-11-21T04:57:16;277.23;;;256.90;;
25932;SDS011;13731;51.166;4.474;2023-11-21T04:59:44;274.38;;;255.05;;
25932;SDS011;13731;51.166;4.474;2023-11-21T05:02:09;278.38;;;259.63;;
25932;SDS011;13731;51.166;4.474;2023-11-21T05:04:37;280.77;;;261.67;;
25932;SDS011;13731;51.166;4.474;2023-11-21T05:07:03;279.73;;;260.90;;
25932;SDS011;13731;51.166;4.474;2023-11-21T05:09:29;276.30;;;257.13;;
25932;SDS011;13731;51.166;4.474;2023-11-21T05:11:57;271.15;;;252.50;;
25932;SDS011;13731;51.166;4.474;2023-11-21T05:14:23;266.83;;;248.00;;
25932;SDS011;13731;51.166;4.474;2023-11-21T05:16:49;266.52;;;248.27;;
25932;SDS011;13731;51.166;4.474;2023-11-21T05:19:17;270.27;;;251.27;;
25932;SDS011;13731;51.166;4.474;2023-11-21T05:21:43;275.83;;;255.93;;
25932;SDS011;13731;51.166;4.474;2023-11-21T05:24:09;272.15;;;253.02;;
25932;SDS011;13731;51.166;4.474;2023-11-21T05:26:35;269.90;;;251.02;;
25932;SDS011;13731;51.166;4.474;2023-11-21T05:29:00;270.92;;;252.90;;
25932;SDS011;13731;51.166;4.474;2023-11-21T05:31:26;277.33;;;259.08;;
25932;SDS011;13731;51.166;4.474;2023-11-21T05:33:52;275.98;;;257.15;;
25932;SDS011;13731;51.166;4.474;2023-11-21T05:36:18;271.17;;;252.32;;
25932;SDS011;13731;51.166;4.474;2023-11-21T05:38:44;272.33;;;253.77;;
25932;SDS011;13731;51.166;4.474;2023-11-21T05:41:11;269.30;;;250.95;;
25932;SDS011;13731;51.166;4.474;2023-11-21T05:43:38;269.67;;;250.77;;
25932;SDS011;13731;51.166;4.474;2023-11-21T05:46:05;262.60;;;244.45;;
25932;SDS011;13731;51.166;4.474;2023-11-21T05:48:32;278.30;;;259.10;;
25932;SDS011;13731;51.166;4.474;2023-11-21T05:50:58;271.48;;;252.80;;
25932;SDS011;13731;51.166;4.474;2023-11-21T05:53:24;281.40;;;261.25;;
25932;SDS011;13731;51.166;4.474;2023-11-21T05:55:50;266.08;;;247.18;;
25932;SDS011;13731;51.166;4.474;2023-11-21T05:58:16;256.85;;;238.52;;
25932;SDS011;13731;51.166;4.474;2023-11-21T06:00:42;263.20;;;244.30;;
25932;SDS011;13731;51.166;4.474;2023-11-21T06:03:08;255.60;;;236.63;;
25932;SDS011;13731;51.166;4.474;2023-11-21T06:05:34;268.65;;;249.70;;
25932;SDS011;13731;51.166;4.474;2023-11-21T06:08:01;266.00;;;246.85;;
25932;SDS011;13731;51.166;4.474;2023-11-21T06:10:27;257.52;;;240.05;;
25932;SDS011;13731;51.166;4.474;2023-11-21T06:12:53;262.92;;;244.43;;
25932;SDS011;13731;51.166;4.474;2023-11-21T06:15:19;258.38;;;240.98;;
25932;SDS011;13731;51.166;4.474;2023-11-21T06:17:47;260.55;;;242.50;;
25932;SDS011;13731;51.166;4.474;2023-11-21T06:20:17;246.27;;;228.63;;
25932;SDS011;13731;51.166;4.474;2023-11-21T06:22:44;250.55;;;233.15;;
25932;SDS011;13731;51.166;4.474;2023-11-21T06:25:11;248.88;;;231.45;;
25932;SDS011;13731;51.166;4.474;2023-11-21T06:27:39;272.25;;;253.63;;
25932;SDS011;13731;51.166;4.474;2023-11-21T06:30:08;271.20;;;250.98;;
25932;SDS011;13731;51.166;4.474;2023-11-21T06:32:35;268.90;;;248.80;;
25932;SDS011;13731;51.166;4.474;2023-11-21T06:35:05;263.05;;;243.77;;
25932;SDS011;13731;51.166;4.474;2023-11-21T06:37:31;275.20;;;254.65;;
25932;SDS011;13731;51.166;4.474;2023-11-21T06:39:58;267.50;;;248.15;;
25932;SDS011;13731;51.166;4.474;2023-11-21T06:42:25;259.98;;;241.50;;
25932;SDS011;13731;51.166;4.474;2023-11-21T06:44:51;261.35;;;243.10;;
25932;SDS011;13731;51.166;4.474;2023-11-21T06:47:19;268.00;;;247.68;;
25932;SDS011;13731;51.166;4.474;2023-11-21T06:49:46;262.90;;;243.60;;
25932;SDS011;13731;51.166;4.474;2023-11-21T06:52:14;272.55;;;251.63;;
25932;SDS011;13731;51.166;4.474;2023-11-21T06:54:41;278.02;;;256.48;;
25932;SDS011;13731;51.166;4.474;2023-11-21T06:57:07;268.15;;;246.95;;
25932;SDS011;13731;51.166;4.474;2023-11-21T06:59:33;268.10;;;248.70;;
25932;SDS011;13731;51.166;4.474;2023-11-21T07:02:02;279.73;;;257.85;;
25932;SDS011;13731;51.166;4.474;2023-11-21T07:04:30;261.33;;;240.00;;
25932;SDS011;13731;51.166;4.474;2023-11-21T07:06:56;273.08;;;250.60;;
25932;SDS011;13731;51.166;4.474;2023-11-21T07:09:22;275.00;;;253.73;;
25932;SDS011;13731;51.166;4.474;2023-11-21T07:11:48;261.23;;;238.73;;
25932;SDS011;13731;51.166;4.474;2023-11-21T07:14:15;272.27;;;249.93;;
25932;SDS011;13731;51.166;4.474;2023-11-21T07:16:42;281.90;;;258.48;;
25932;SDS011;13731;51.166;4.474;2023-11-21T07:19:08;274.95;;;252.05;;
25932;SDS011;13731;51.166;4.474;2023-11-21T07:21:37;269.20;;;245.90;;
25932;SDS011;13731;51.166;4.474;2023-11-21T07:24:04;280.83;;;258.95;;
25932;SDS011;13731;51.166;4.474;2023-11-21T07:26:32;269.88;;;247.15;;
25932;SDS011;13731;51.166;4.474;2023-11-21T07:28:59;265.80;;;244.35;;
25932;SDS011;13731;51.166;4.474;2023-11-21T07:31:26;271.25;;;248.90;;
25932;SDS011;13731;51.166;4.474;2023-11-21T07:33:52;288.13;;;265.55;;
25932;SDS011;13731;51.166;4.474;2023-11-21T07:36:21;273.65;;;251.55;;
25932;SDS011;13731;51.166;4.474;2023-11-21T07:38:47;258.20;;;235.95;;
25932;SDS011;13731;51.166;4.474;2023-11-21T07:41:13;290.23;;;267.02;;
25932;SDS011;13731;51.166;4.474;2023-11-21T07:43:43;274.05;;;251.93;;
25932;SDS011;13731;51.166;4.474;2023-11-21T07:46:10;259.95;;;237.38;;
25932;SDS011;13731;51.166;4.474;2023-11-21T07:48:41;269.52;;;247.30;;
25932;SDS011;13731;51.166;4.474;2023-11-21T07:51:08;268.00;;;246.50;;
25932;SDS011;13731;51.166;4.474;2023-11-21T07:53:35;266.50;;;243.50;;
25932;SDS011;13731;51.166;4.474;2023-11-21T07:56:08;283.60;;;259.95;;
25932;SDS011;13731;51.166;4.474;2023-11-21T07:58:35;290.33;;;265.63;;
25932;SDS011;13731;51.166;4.474;2023-11-21T08:01:03;278.55;;;255.75;;
25932;SDS011;13731;51.166;4.474;2023-11-21T08:03:30;269.00;;;246.15;;
25932;SDS011;13731;51.166;4.474;2023-11-21T08:05:59;284.30;;;259.88;;
25932;SDS011;13731;51.166;4.474;2023-11-21T08:08:25;272.33;;;250.55;;
25932;SDS011;13731;51.166;4.474;2023-11-21T08:10:52;284.60;;;261.30;;
25932;SDS011;13731;51.166;4.474;2023-11-21T08:13:22;273.05;;;250.75;;
25932;SDS011;13731;51.166;4.474;2023-11-21T08:15:55;264.52;;;241.23;;
25932;SDS011;13731;51.166;4.474;2023-11-21T08:18:23;265.38;;;243.15;;
25932;SDS011;13731;51.166;4.474;2023-11-21T08:20:50;269.00;;;247.43;;
25932;SDS011;13731;51.166;4.474;2023-11-21T08:23:16;281.85;;;258.90;;
25932;SDS011;13731;51.166;4.474;2023-11-21T08:25:42;272.80;;;250.40;;
25932;SDS011;13731;51.166;4.474;2023-11-21T08:28:09;272.95;;;252.45;;
25932;SDS011;13731;51.166;4.474;2023-11-21T08:30:35;282.17;;;260.38;;
25932;SDS011;13731;51.166;4.474;2023-11-21T08:33:01;295.75;;;273.40;;
25932;SDS011;13731;51.166;4.474;2023-11-21T08:35:28;314.45;;;289.77;;
25932;SDS011;13731;51.166;4.474;2023-11-21T08:37:55;340.60;;;315.67;;
25932;SDS011;13731;51.166;4.474;2023-11-21T08:40:21;317.48;;;293.85;;
25932;SDS011;13731;51.166;4.474;2023-11-21T08:42:47;290.98;;;269.27;;
25932;SDS011;13731;51.166;4.474;2023-11-21T08:45:14;295.00;;;273.08;;
25932;SDS011;13731;51.166;4.474;2023-11-21T08:47:40;261.25;;;241.88;;
25932;SDS011;13731;51.166;4.474;2023-11-21T08:50:09;283.17;;;261.63;;
25932;SDS011;13731;51.166;4.474;2023-11-21T08:52:37;276.88;;;256.83;;
25932;SDS011;13731;51.166;4.474;2023-11-21T08:55:04;283.40;;;263.33;;
25932;SDS011;13731;51.166;4.474;2023-11-21T08:57:36;288.42;;;266.85;;
25932;SDS011;13731;51.166;4.474;2023-11-21T09:00:03;283.50;;;262.33;;
25932;SDS011;13731;51.166;4.474;2023-11-21T09:02:33;253.55;;;234.77;;
25932;SDS011;13731;51.166;4.474;2023-11-21T09:05:03;257.33;;;238.75;;
25932;SDS011;13731;51.166;4.474;2023-11-21T09:07:30;268.38;;;249.63;;
25932;SDS011;13731;51.166;4.474;2023-11-21T09:09:56;279.70;;;260.35;;
25932;SDS011;13731;51.166;4.474;2023-11-21T09:12:22;311.58;;;289.23;;
25932;SDS011;13731;51.166;4.474;2023-11-21T09:14:50;298.13;;;277.63;;
25932;SDS011;13731;51.166;4.474;2023-11-21T09:17:16;297.30;;;276.55;;
25932;SDS011;13731;51.166;4.474;2023-11-21T09:19:42;298.17;;;277.70;;
25932;SDS011;13731;51.166;4.474;2023-11-21T09:22:15;318.77;;;297.75;;
25932;SDS011;13731;51.166;4.474;2023-11-21T09:24:41;329.20;;;306.92;;
25932;SDS011;13731;51.166;4.474;2023-11-21T09:27:07;337.60;;;315.33;;
25932;SDS011;13731;51.166;4.474;2023-11-21T09:29:35;306.50;;;286.25;;
25932;SDS011;13731;51.166;4.474;2023-11-21T09:32:04;319.95;;;300.05;;
25932;SDS011;13731;51.166;4.474;2023-11-21T09:34:33;292.88;;;274.00;;
25932;SDS011;13731;51.166;4.474;2023-11-21T09:37:03;277.63;;;259.70;;
25932;SDS011;13731;51.166;4.474;2023-11-21T09:39:31;273.85;;;256.65;;
25932;SDS011;13731;51.166;4.474;2023-11-21T09:45:00;285.67;;;267.42;;
25932;SDS011;13731;51.166;4.474;2023-11-21T09:47:31;264.50;;;248.10;;
25932;SDS011;13731;51.166;4.474;2023-11-21T09:50:01;261.20;;;245.52;;
25932;SDS011;13731;51.166;4.474;2023-11-21T09:52:27;263.27;;;247.57;;
25932;SDS011;13731;51.166;4.474;2023-11-21T09:54:54;252.63;;;237.35;;
25932;SDS011;13731;51.166;4.474;2023-11-21T09:57:24;260.05;;;245.07;;
25932;SDS011;13731;51.166;4.474;2023-11-21T09:59:51;279.77;;;263.15;;
25932;SDS011;13731;51.166;4.474;2023-11-21T10:02:27;278.40;;;261.75;;
25932;SDS011;13731;51.166;4.474;2023-11-21T10:04:56;346.20;;;326.65;;
25932;SDS011;13731;51.166;4.474;2023-11-21T10:07:22;330.50;;;311.60;;
25932;SDS011;13731;51.166;4.474;2023-11-21T10:09:48;320.42;;;302.35;;
25932;SDS011;13731;51.166;4.474;2023-11-21T10:12:16;321.15;;;303.20;;
25932;SDS011;13731;51.166;4.474;2023-11-21T10:14:46;299.17;;;282.83;;
25932;SDS011;13731;51.166;4.474;2023-11-21T10:17:15;297.23;;;281.23;;
25932;SDS011;13731;51.166;4.474;2023-11-21T10:19:49;309.58;;;292.65;;
25932;SDS011;13731;51.166;4.474;2023-11-21T10:22:15;280.45;;;265.25;;
25932;SDS011;13731;51.166;4.474;2023-11-21T10:24:42;269.90;;;255.48;;
25932;SDS011;13731;51.166;4.474;2023-11-21T10:27:09;281.45;;;265.60;;
25932;SDS011;13731;51.166;4.474;2023-11-21T10:29:35;291.48;;;275.30;;
25932;SDS011;13731;51.166;4.474;2023-11-21T10:32:04;281.90;;;267.05;;
25932;SDS011;13731;51.166;4.474;2023-11-21T10:34:30;235.48;;;223.07;;
25932;SDS011;13731;51.166;4.474;2023-11-21T10:36:57;244.05;;;230.82;;
25932;SDS011;13731;51.166;4.474;2023-11-21T10:39:24;252.88;;;239.80;;
25932;SDS011;13731;51.166;4.474;2023-11-21T10:41:55;245.50;;;232.45;;
25932;SDS011;13731;51.166;4.474;2023-11-21T10:44:21;264.63;;;250.88;;
25932;SDS011;13731;51.166;4.474;2023-11-21T10:46:51;255.00;;;242.15;;
25932;SDS011;13731;51.166;4.474;2023-11-21T10:49:26;243.90;;;231.50;;
25932;SDS011;13731;51.166;4.474;2023-11-21T10:51:53;221.75;;;210.48;;
25932;SDS011;13731;51.166;4.474;2023-11-21T10:54:20;202.10;;;191.63;;
25932;SDS011;13731;51.166;4.474;2023-11-21T10:56:51;206.23;;;195.48;;
25932;SDS011;13731;51.166;4.474;2023-11-21T10:59:22;242.15;;;229.82;;
25932;SDS011;13731;51.166;4.474;2023-11-21T11:01:50;249.88;;;237.45;;
25932;SDS011;13731;51.166;4.474;2023-11-21T11:04:20;234.52;;;222.88;;
25932;SDS011;13731;51.166;4.474;2023-11-21T11:07:03;251.05;;;238.73;;
25932;SDS011;13731;51.166;4.474;2023-11-21T11:09:31;230.75;;;219.18;;
25932;SDS011;13731;51.166;4.474;2023-11-21T11:12:01;282.13;;;268.10;;
25932;SDS011;13731;51.166;4.474;2023-11-21T11:14:27;252.02;;;239.77;;
25932;SDS011;13731;51.166;4.474;2023-11-21T11:16:54;254.07;;;241.02;;
25932;SDS011;13731;51.166;4.474;2023-11-21T11:19:21;294.75;;;280.48;;
25932;SDS011;13731;51.166;4.474;2023-11-21T11:24:40;312.63;;;296.85;;
25932;SDS011;13731;51.166;4.474;2023-11-21T11:27:44;306.23;;;290.45;;
25932;SDS011;13731;51.166;4.474;2023-11-21T11:30:26;264.27;;;251.05;;
25932;SDS011;13731;51.166;4.474;2023-11-21T11:36:00;261.50;;;248.85;;
25932;SDS011;13731;51.166;4.474;2023-11-21T11:38:46;280.75;;;267.30;;
25932;SDS011;13731;51.166;4.474;2023-11-21T11:41:15;296.05;;;281.45;;
25932;SDS011;13731;51.166;4.474;2023-11-21T11:43:59;297.48;;;282.58;;
25932;SDS011;13731;51.166;4.474;2023-11-21T11:46:44;317.63;;;302.27;;
25932;SDS011;13731;51.166;4.474;2023-11-21T11:49:24;298.58;;;283.33;;
25932;SDS011;13731;51.166;4.474;2023-11-21T11:54:59;304.65;;;289.80;;
25932;SDS011;13731;51.166;4.474;2023-11-21T11:57:25;265.17;;;252.18;;
25932;SDS011;13731;51.166;4.474;2023-11-21T12:02:36;231.82;;;220.05;;
25932;SDS011;13731;51.166;4.474;2023-11-21T12:05:09;265.83;;;252.30;;
25932;SDS011;13731;51.166;4.474;2023-11-21T12:07:46;267.08;;;253.00;;
25932;SDS011;13731;51.166;4.474;2023-11-21T12:10:19;302.65;;;286.58;;
25932;SDS011;13731;51.166;4.474;2023-11-21T12:12:50;270.15;;;256.10;;
25932;SDS011;13731;51.166;4.474;2023-11-21T12:15:18;294.25;;;278.42;;
25932;SDS011;13731;51.166;4.474;2023-11-21T12:17:45;340.25;;;321.40;;
25932;SDS011;13731;51.166;4.474;2023-11-21T12:20:12;308.98;;;292.85;;
25932;SDS011;13731;51.166;4.474;2023-11-21T12:22:46;300.92;;;285.58;;
25932;SDS011;13731;51.166;4.474;2023-11-21T12:25:20;333.17;;;315.77;;
25932;SDS011;13731;51.166;4.474;2023-11-21T12:27:52;330.98;;;314.05;;
25932;SDS011;13731;51.166;4.474;2023-11-21T12:30:19;324.38;;;307.52;;
25932;SDS011;13731;51.166;4.474;2023-11-21T12:32:54;326.23;;;309.52;;
25932;SDS011;13731;51.166;4.474;2023-11-21T12:35:25;298.13;;;283.27;;
25932;SDS011;13731;51.166;4.474;2023-11-21T12:37:52;300.17;;;285.52;;
25932;SDS011;13731;51.166;4.474;2023-11-21T12:40:20;287.38;;;273.38;;
25932;SDS011;13731;51.166;4.474;2023-11-21T12:42:49;294.63;;;279.90;;
25932;SDS011;13731;51.166;4.474;2023-11-21T12:45:27;271.17;;;258.02;;
25932;SDS011;13731;51.166;4.474;2023-11-21T12:50:25;290.77;;;276.85;;
25932;SDS011;13731;51.166;4.474;2023-11-21T12:53:03;299.02;;;284.38;;
25932;SDS011;13731;51.166;4.474;2023-11-21T12:55:43;270.98;;;258.27;;
25932;SDS011;13731;51.166;4.474;2023-11-21T12:58:15;243.75;;;232.13;;
25932;SDS011;13731;51.166;4.474;2023-11-21T13:00:47;250.73;;;238.55;;
25932;SDS011;13731;51.166;4.474;2023-11-21T13:03:15;279.05;;;265.48;;
25932;SDS011;13731;51.166;4.474;2023-11-21T13:05:43;229.83;;;219.00;;
25932;SDS011;13731;51.166;4.474;2023-11-21T13:08:12;270.58;;;257.65;;
25932;SDS011;13731;51.166;4.474;2023-11-21T13:10:39;226.77;;;215.95;;
25932;SDS011;13731;51.166;4.474;2023-11-21T13:13:08;271.88;;;258.13;;
25932;SDS011;13731;51.166;4.474;2023-11-21T13:15:39;267.80;;;254.52;;
25932;SDS011;13731;51.166;4.474;2023-11-21T13:18:08;229.77;;;218.40;;
25932;SDS011;13731;51.166;4.474;2023-11-21T13:20:36;239.23;;;227.20;;
25932;SDS011;13731;51.166;4.474;2023-11-21T13:23:07;226.70;;;214.93;;
25932;SDS011;13731;51.166;4.474;2023-11-21T13:25:33;237.32;;;225.93;;
25932;SDS011;13731;51.166;4.474;2023-11-21T13:28:00;235.15;;;223.57;;
25932;SDS011;13731;51.166;4.474;2023-11-21T13:30:26;219.00;;;208.05;;
25932;SDS011;13731;51.166;4.474;2023-11-21T13:33:01;231.65;;;220.05;;
25932;SDS011;13731;51.166;4.474;2023-11-21T13:35:31;221.88;;;211.00;;
25932;SDS011;13731;51.166;4.474;2023-11-21T13:38:14;228.80;;;217.38;;
25932;SDS011;13731;51.166;4.474;2023-11-21T13:40:49;230.27;;;219.00;;
25932;SDS011;13731;51.166;4.474;2023-11-21T13:43:19;234.75;;;223.02;;
25932;SDS011;13731;51.166;4.474;2023-11-21T13:45:49;246.82;;;234.55;;
25932;SDS011;13731;51.166;4.474;2023-11-21T13:48:23;232.50;;;221.07;;
25932;SDS011;13731;51.166;4.474;2023-11-21T13:51:06;223.48;;;212.55;;
25932;SDS011;13731;51.166;4.474;2023-11-21T13:53:45;229.13;;;218.13;;
25932;SDS011;13731;51.166;4.474;2023-11-21T13:56:17;254.02;;;241.85;;
25932;SDS011;13731;51.166;4.474;2023-11-21T13:58:53;263.33;;;250.65;;
25932;SDS011;13731;51.166;4.474;2023-11-21T14:01:21;278.45;;;265.15;;
25932;SDS011;13731;51.166;4.474;2023-11-21T14:03:57;274.40;;;261.25;;
25932;SDS011;13731;51.166;4.474;2023-11-21T14:06:42;260.77;;;248.45;;
25932;SDS011;13731;51.166;4.474;2023-11-21T14:09:16;283.15;;;269.73;;
25932;SDS011;13731;51.166;4.474;2023-11-21T14:11:51;277.63;;;264.38;;
25932;SDS011;13731;51.166;4.474;2023-11-21T14:14:19;217.35;;;207.05;;
25932;SDS011;13731;51.166;4.474;2023-11-21T14:16:45;240.68;;;228.98;;
25932;SDS011;13731;51.166;4.474;2023-11-21T14:19:12;247.52;;;235.75;;